SVR48 USSS-URSS
Flight info
| Callsign | SVR48 |
|---|---|
| Flight time | 2h 53m |
| Altitude | 36000 |
| Route | MIKUS6K MIKUS T764 DILUP T173 IBSIL T764 MAKEM P135 KR G900 ER B145 SUDIR N166 ADNET W79 BINOL DCT BANUT BANUT1G |
| Aircraft | A320/M-SDE3FGHIRWY/LB1 |
Departure
| Time | 2026-05-07 00:27 |
|---|---|
| Airport | Koltsovo Airport (USSS) |
Arrival
| Time | 2026-05-07 03:20 |
|---|---|
| Airport | Sochi International Airport (URSS) |
| Time | Latitude | Longitude | Altitude | Speed | Heading |
|---|---|---|---|---|---|
| 2026-05-07 00:19 | 56.74772 | 60.80006 | 775 ft | 0 kts | 180° |
| 2026-05-07 00:19 | 56.74745 | 60.80020 | 775 ft | 7 kts | 144° |
| 2026-05-07 00:20 | 56.74730 | 60.80093 | 775 ft | 5 kts | 111° |
| 2026-05-07 00:20 | 56.74707 | 60.80125 | 775 ft | 5 kts | 161° |
| 2026-05-07 00:20 | 56.74670 | 60.80158 | 775 ft | 7 kts | 132° |
| 2026-05-07 00:20 | 56.74662 | 60.80256 | 775 ft | 11 kts | 91° |
| 2026-05-07 00:21 | 56.74660 | 60.80427 | 775 ft | 16 kts | 89° |
| 2026-05-07 00:21 | 56.74661 | 60.80648 | 775 ft | 18 kts | 90° |
| 2026-05-07 00:21 | 56.74660 | 60.80880 | 775 ft | 19 kts | 90° |
| 2026-05-07 00:21 | 56.74660 | 60.81093 | 775 ft | 17 kts | 90° |
| 2026-05-07 00:22 | 56.74659 | 60.81296 | 775 ft | 16 kts | 90° |
| 2026-05-07 00:22 | 56.74658 | 60.81506 | 775 ft | 17 kts | 90° |
| 2026-05-07 00:22 | 56.74660 | 60.81725 | 775 ft | 18 kts | 88° |
| 2026-05-07 00:22 | 56.74658 | 60.81951 | 776 ft | 18 kts | 91° |
| 2026-05-07 00:23 | 56.74659 | 60.82121 | 776 ft | 12 kts | 89° |
| 2026-05-07 00:23 | 56.74613 | 60.82199 | 776 ft | 9 kts | 176° |
| 2026-05-07 00:23 | 56.74559 | 60.82200 | 775 ft | 8 kts | 179° |
| 2026-05-07 00:23 | 56.74517 | 60.82201 | 776 ft | 5 kts | 179° |
| 2026-05-07 00:24 | 56.74477 | 60.82201 | 776 ft | 12 kts | 180° |
| 2026-05-07 00:24 | 56.74379 | 60.82192 | 776 ft | 15 kts | 184° |
| 2026-05-07 00:24 | 56.74276 | 60.82178 | 776 ft | 15 kts | 181° |
| 2026-05-07 00:24 | 56.74170 | 60.82163 | 776 ft | 16 kts | 185° |
| 2026-05-07 00:25 | 56.74072 | 60.82111 | 776 ft | 14 kts | 240° |
| 2026-05-07 00:25 | 56.74068 | 60.82038 | 776 ft | 0 kts | 273° |
| 2026-05-07 00:26 | 56.74069 | 60.82034 | 776 ft | 3 kts | 273° |
| 2026-05-07 00:26 | 56.74085 | 60.81613 | 776 ft | 73 kts | 273° |
| 2026-05-07 00:26 | 56.74138 | 60.80220 | 775 ft | 144 kts | 273° |
| 2026-05-07 00:26 | 56.74223 | 60.78115 | 1030 ft | 174 kts | 275° |
| 2026-05-07 00:27 | 56.74288 | 60.75968 | 1956 ft | 168 kts | 272° |
| 2026-05-07 00:27 | 56.74353 | 60.73808 | 2738 ft | 178 kts | 272° |
| 2026-05-07 00:27 | 56.74378 | 60.71429 | 3369 ft | 196 kts | 270° |
| 2026-05-07 00:27 | 56.74384 | 60.68836 | 4054 ft | 213 kts | 272° |
| 2026-05-07 00:28 | 56.74430 | 60.65986 | 4658 ft | 237 kts | 271° |
| 2026-05-07 00:28 | 56.74455 | 60.62858 | 5284 ft | 254 kts | 270° |
| 2026-05-07 00:28 | 56.74472 | 60.59566 | 5864 ft | 264 kts | 271° |
| 2026-05-07 00:28 | 56.74500 | 60.56188 | 6570 ft | 269 kts | 271° |
| 2026-05-07 00:29 | 56.74221 | 60.52840 | 7313 ft | 270 kts | 244° |
| 2026-05-07 00:29 | 56.73048 | 60.50151 | 7741 ft | 277 kts | 219° |
| 2026-05-07 00:30 | 56.67851 | 60.45452 | 7862 ft | 280 kts | 204° |
| 2026-05-07 00:30 | 56.66092 | 60.44043 | 7863 ft | 280 kts | 206° |
| 2026-05-07 00:30 | 56.64314 | 60.42516 | 7868 ft | 279 kts | 207° |
| 2026-05-07 00:30 | 56.62575 | 60.40935 | 7866 ft | 280 kts | 208° |
| 2026-05-07 00:31 | 56.60850 | 60.39305 | 7865 ft | 279 kts | 209° |
| 2026-05-07 00:31 | 56.59133 | 60.37649 | 7869 ft | 279 kts | 209° |
| 2026-05-07 00:31 | 56.57449 | 60.36008 | 7868 ft | 279 kts | 209° |
| 2026-05-07 00:31 | 56.55733 | 60.34330 | 7873 ft | 279 kts | 209° |
| 2026-05-07 00:32 | 56.54023 | 60.32662 | 7873 ft | 280 kts | 209° |
| 2026-05-07 00:32 | 56.52309 | 60.30991 | 7871 ft | 280 kts | 209° |
| 2026-05-07 00:32 | 56.50593 | 60.29322 | 7874 ft | 280 kts | 209° |
| 2026-05-07 00:32 | 56.48983 | 60.27761 | 7874 ft | 280 kts | 209° |
| 2026-05-07 00:33 | 56.47979 | 60.26789 | 7877 ft | 280 kts | 209° |
| 2026-05-07 00:33 | 56.46729 | 60.25576 | 7880 ft | 280 kts | 209° |
| 2026-05-07 00:33 | 56.45011 | 60.23912 | 7880 ft | 280 kts | 209° |
| 2026-05-07 00:33 | 56.43291 | 60.22248 | 7876 ft | 280 kts | 209° |
| 2026-05-07 00:34 | 56.41571 | 60.20587 | 7882 ft | 280 kts | 209° |
| 2026-05-07 00:34 | 56.39961 | 60.18620 | 7914 ft | 279 kts | 224° |
| 2026-05-07 00:34 | 56.38573 | 60.16169 | 8410 ft | 281 kts | 225° |
| 2026-05-07 00:34 | 56.37164 | 60.13693 | 9144 ft | 284 kts | 224° |
| 2026-05-07 00:35 | 56.35736 | 60.11206 | 9870 ft | 287 kts | 224° |
| 2026-05-07 00:35 | 56.34273 | 60.08659 | 10323 ft | 300 kts | 224° |
| 2026-05-07 00:35 | 56.32733 | 60.05976 | 10636 ft | 316 kts | 224° |
| 2026-05-07 00:35 | 56.31111 | 60.03152 | 10939 ft | 333 kts | 224° |
| 2026-05-07 00:36 | 56.29405 | 60.00181 | 11198 ft | 349 kts | 224° |
| 2026-05-07 00:36 | 56.27619 | 59.97072 | 11420 ft | 365 kts | 224° |
| 2026-05-07 00:36 | 56.25749 | 59.93828 | 11615 ft | 381 kts | 224° |
| 2026-05-07 00:36 | 56.23830 | 59.90500 | 11782 ft | 396 kts | 224° |
| 2026-05-07 00:37 | 56.21800 | 59.86983 | 12210 ft | 403 kts | 224° |
| 2026-05-07 00:37 | 56.19798 | 59.83521 | 12749 ft | 406 kts | 224° |
| 2026-05-07 00:37 | 56.17756 | 59.79994 | 13303 ft | 409 kts | 224° |
| 2026-05-07 00:37 | 56.15695 | 59.76442 | 13821 ft | 413 kts | 224° |
| 2026-05-07 00:38 | 56.13617 | 59.72869 | 14295 ft | 415 kts | 224° |
| 2026-05-07 00:38 | 56.11519 | 59.69272 | 14753 ft | 418 kts | 224° |
| 2026-05-07 00:38 | 56.09407 | 59.65663 | 15200 ft | 421 kts | 224° |
| 2026-05-07 00:38 | 56.07280 | 59.62029 | 15638 ft | 424 kts | 224° |
| 2026-05-07 00:39 | 56.05299 | 59.58114 | 16065 ft | 426 kts | 233° |
| 2026-05-07 00:39 | 56.04174 | 59.55153 | 16361 ft | 427 kts | 240° |
| 2026-05-07 00:39 | 56.02780 | 59.50459 | 16760 ft | 429 kts | 243° |
| 2026-05-07 00:39 | 56.01407 | 59.45707 | 17151 ft | 432 kts | 243° |
| 2026-05-07 00:40 | 56.00012 | 59.40936 | 17543 ft | 434 kts | 243° |
| 2026-05-07 00:40 | 55.98600 | 59.36148 | 17929 ft | 437 kts | 243° |
| 2026-05-07 00:40 | 55.97182 | 59.31348 | 18287 ft | 439 kts | 243° |
| 2026-05-07 00:40 | 55.95751 | 59.26513 | 18596 ft | 441 kts | 243° |
| 2026-05-07 00:41 | 55.94315 | 59.21662 | 18908 ft | 443 kts | 243° |
| 2026-05-07 00:41 | 55.92872 | 59.16794 | 19213 ft | 445 kts | 243° |
| 2026-05-07 00:41 | 55.91419 | 59.11902 | 19508 ft | 447 kts | 243° |
| 2026-05-07 00:41 | 55.89960 | 59.06995 | 19790 ft | 449 kts | 243° |
| 2026-05-07 00:42 | 55.88495 | 59.02079 | 20069 ft | 451 kts | 243° |
| 2026-05-07 00:42 | 55.87019 | 58.97139 | 20338 ft | 452 kts | 242° |
| 2026-05-07 00:42 | 55.85537 | 58.92191 | 20599 ft | 454 kts | 242° |
| 2026-05-07 00:42 | 55.84045 | 58.87222 | 20855 ft | 456 kts | 242° |
| 2026-05-07 00:43 | 55.82546 | 58.82245 | 21103 ft | 457 kts | 242° |
| 2026-05-07 00:43 | 55.81039 | 58.77258 | 21354 ft | 459 kts | 242° |
| 2026-05-07 00:43 | 55.79526 | 58.72246 | 21596 ft | 461 kts | 242° |
| 2026-05-07 00:43 | 55.78007 | 58.67222 | 21829 ft | 462 kts | 242° |
| 2026-05-07 00:44 | 55.76507 | 58.62259 | 22051 ft | 464 kts | 242° |
| 2026-05-07 00:44 | 55.74976 | 58.57203 | 22262 ft | 465 kts | 242° |
| 2026-05-07 00:44 | 55.73436 | 58.52139 | 22486 ft | 466 kts | 242° |
| 2026-05-07 00:44 | 55.71893 | 58.47071 | 22691 ft | 468 kts | 242° |
| 2026-05-07 00:45 | 55.70341 | 58.41998 | 22884 ft | 469 kts | 242° |
| 2026-05-07 00:45 | 55.68780 | 58.36909 | 23077 ft | 470 kts | 242° |
| 2026-05-07 00:45 | 55.67214 | 58.31809 | 23263 ft | 472 kts | 242° |
| 2026-05-07 00:45 | 55.65641 | 58.26703 | 23435 ft | 473 kts | 242° |
| 2026-05-07 00:46 | 55.64066 | 58.21600 | 23633 ft | 472 kts | 242° |
| 2026-05-07 00:46 | 55.62491 | 58.16505 | 23865 ft | 471 kts | 242° |
| 2026-05-07 00:46 | 55.60917 | 58.11428 | 24073 ft | 470 kts | 242° |
| 2026-05-07 00:46 | 55.59344 | 58.06367 | 24305 ft | 470 kts | 242° |
| 2026-05-07 00:47 | 55.57768 | 58.01309 | 24537 ft | 469 kts | 242° |
| 2026-05-07 00:47 | 55.56197 | 57.96275 | 24754 ft | 468 kts | 242° |
| 2026-05-07 00:47 | 55.54623 | 57.91241 | 24980 ft | 467 kts | 242° |
| 2026-05-07 00:47 | 55.53050 | 57.86226 | 25212 ft | 467 kts | 241° |
| 2026-05-07 00:48 | 55.51477 | 57.81226 | 25440 ft | 466 kts | 241° |
| 2026-05-07 00:48 | 55.49898 | 57.76228 | 25680 ft | 465 kts | 241° |
| 2026-05-07 00:48 | 55.48322 | 57.71251 | 25923 ft | 465 kts | 241° |
| 2026-05-07 00:48 | 55.46750 | 57.66285 | 26167 ft | 464 kts | 241° |
| 2026-05-07 00:49 | 55.45177 | 57.61326 | 26410 ft | 463 kts | 241° |
| 2026-05-07 00:49 | 55.43603 | 57.56379 | 26659 ft | 463 kts | 241° |
| 2026-05-07 00:49 | 55.42030 | 57.51446 | 26906 ft | 462 kts | 241° |
| 2026-05-07 00:49 | 55.40454 | 57.46521 | 27161 ft | 461 kts | 241° |
| 2026-05-07 00:50 | 55.38882 | 57.41615 | 27415 ft | 460 kts | 241° |
| 2026-05-07 00:50 | 55.37309 | 57.36713 | 27672 ft | 460 kts | 241° |
| 2026-05-07 00:50 | 55.35736 | 57.31825 | 27930 ft | 459 kts | 241° |
| 2026-05-07 00:50 | 55.34164 | 57.26955 | 28188 ft | 458 kts | 240° |
| 2026-05-07 00:51 | 55.32589 | 57.22092 | 28448 ft | 458 kts | 240° |
| 2026-05-07 00:51 | 55.31017 | 57.17247 | 28693 ft | 457 kts | 240° |
| 2026-05-07 00:51 | 55.29446 | 57.12401 | 28967 ft | 456 kts | 240° |
| 2026-05-07 00:51 | 55.27881 | 57.07566 | 29227 ft | 456 kts | 240° |
| 2026-05-07 00:52 | 55.26319 | 57.02743 | 29495 ft | 455 kts | 240° |
| 2026-05-07 00:52 | 55.24759 | 56.97924 | 29752 ft | 454 kts | 240° |
| 2026-05-07 00:52 | 55.23199 | 56.93111 | 30013 ft | 453 kts | 240° |
| 2026-05-07 00:52 | 55.21639 | 56.88320 | 30232 ft | 453 kts | 240° |
| 2026-05-07 00:53 | 55.20078 | 56.83538 | 30440 ft | 452 kts | 240° |
| 2026-05-07 00:53 | 55.18517 | 56.78769 | 30654 ft | 451 kts | 240° |
| 2026-05-07 00:53 | 55.16955 | 56.74010 | 30871 ft | 451 kts | 240° |
| 2026-05-07 00:53 | 55.15392 | 56.69256 | 31081 ft | 450 kts | 240° |
| 2026-05-07 00:54 | 55.13832 | 56.64517 | 31292 ft | 450 kts | 240° |
| 2026-05-07 00:54 | 55.12274 | 56.59786 | 31504 ft | 449 kts | 240° |
| 2026-05-07 00:54 | 55.10710 | 56.55066 | 31712 ft | 448 kts | 240° |
| 2026-05-07 00:54 | 55.09146 | 56.50362 | 31922 ft | 448 kts | 240° |
| 2026-05-07 00:55 | 55.07581 | 56.45663 | 32137 ft | 447 kts | 240° |
| 2026-05-07 00:55 | 55.06022 | 56.40980 | 32346 ft | 446 kts | 240° |
| 2026-05-07 00:55 | 55.04464 | 56.36294 | 32549 ft | 446 kts | 240° |
| 2026-05-07 00:55 | 55.02909 | 56.31619 | 32755 ft | 446 kts | 240° |
| 2026-05-07 00:56 | 55.01355 | 56.26955 | 32950 ft | 445 kts | 240° |
| 2026-05-07 00:56 | 54.99818 | 56.22359 | 33142 ft | 445 kts | 240° |
| 2026-05-07 00:56 | 54.98258 | 56.17707 | 33342 ft | 444 kts | 240° |
| 2026-05-07 00:56 | 54.96698 | 56.13068 | 33538 ft | 444 kts | 240° |
| 2026-05-07 00:57 | 54.95138 | 56.08440 | 33733 ft | 443 kts | 240° |
| 2026-05-07 00:57 | 54.93578 | 56.03823 | 33928 ft | 443 kts | 239° |
| 2026-05-07 00:57 | 54.92021 | 55.99214 | 34092 ft | 442 kts | 239° |
| 2026-05-07 00:57 | 54.90459 | 55.94606 | 34253 ft | 442 kts | 239° |
| 2026-05-07 00:58 | 54.88897 | 55.90005 | 34411 ft | 442 kts | 239° |
| 2026-05-07 00:58 | 54.87335 | 55.85412 | 34566 ft | 441 kts | 239° |
| 2026-05-07 00:58 | 54.85772 | 55.80827 | 34709 ft | 441 kts | 239° |
| 2026-05-07 00:58 | 54.84208 | 55.76244 | 34849 ft | 441 kts | 239° |
| 2026-05-07 00:59 | 54.81073 | 55.67105 | 35132 ft | 441 kts | 239° |
| 2026-05-07 00:59 | 54.79504 | 55.62545 | 35261 ft | 441 kts | 239° |
| 2026-05-07 00:59 | 54.77934 | 55.57986 | 35397 ft | 440 kts | 239° |
| 2026-05-07 01:00 | 54.76365 | 55.53432 | 35506 ft | 440 kts | 239° |
| 2026-05-07 01:00 | 54.74794 | 55.48890 | 35628 ft | 440 kts | 239° |
| 2026-05-07 01:00 | 54.73220 | 55.44355 | 35774 ft | 439 kts | 239° |
| 2026-05-07 01:00 | 54.71648 | 55.39832 | 35875 ft | 439 kts | 239° |
| 2026-05-07 01:01 | 54.70073 | 55.35301 | 35898 ft | 441 kts | 239° |
| 2026-05-07 01:01 | 54.66890 | 55.26175 | 35890 ft | 445 kts | 239° |
| 2026-05-07 01:02 | 54.63679 | 55.16994 | 35883 ft | 448 kts | 239° |
| 2026-05-07 01:02 | 54.60456 | 55.07786 | 35890 ft | 448 kts | 239° |
| 2026-05-07 01:03 | 54.57215 | 54.98590 | 35894 ft | 449 kts | 239° |
| 2026-05-07 01:03 | 54.53969 | 54.89404 | 35900 ft | 449 kts | 239° |
| 2026-05-07 01:04 | 54.50717 | 54.80228 | 35898 ft | 449 kts | 239° |
| 2026-05-07 01:04 | 54.47457 | 54.71062 | 35899 ft | 449 kts | 239° |
| 2026-05-07 01:05 | 54.44190 | 54.61901 | 35900 ft | 449 kts | 238° |
| 2026-05-07 01:05 | 54.40913 | 54.52764 | 35904 ft | 449 kts | 238° |
| 2026-05-07 01:06 | 54.37623 | 54.43627 | 35903 ft | 450 kts | 238° |
| 2026-05-07 01:06 | 54.34334 | 54.34509 | 35905 ft | 450 kts | 238° |
| 2026-05-07 01:07 | 54.31031 | 54.25391 | 35907 ft | 450 kts | 238° |
| 2026-05-07 01:07 | 54.27717 | 54.16297 | 35907 ft | 450 kts | 238° |
| 2026-05-07 01:08 | 54.24398 | 54.07211 | 35912 ft | 450 kts | 238° |
| 2026-05-07 01:08 | 54.21073 | 53.98143 | 35911 ft | 450 kts | 238° |
| 2026-05-07 01:09 | 54.17735 | 53.89084 | 35906 ft | 451 kts | 238° |
| 2026-05-07 01:09 | 54.14418 | 53.80096 | 35902 ft | 451 kts | 238° |
| 2026-05-07 01:10 | 54.11075 | 53.71052 | 35909 ft | 451 kts | 238° |
| 2026-05-07 01:10 | 54.07710 | 53.62036 | 35913 ft | 451 kts | 237° |
| 2026-05-07 01:11 | 54.04340 | 53.53032 | 35903 ft | 451 kts | 238° |
| 2026-05-07 01:11 | 54.00977 | 53.44017 | 35906 ft | 451 kts | 238° |
| 2026-05-07 01:12 | 53.97601 | 53.35022 | 35909 ft | 451 kts | 237° |
| 2026-05-07 01:12 | 53.94206 | 53.26041 | 35909 ft | 452 kts | 237° |
| 2026-05-07 01:13 | 53.90810 | 53.17090 | 35905 ft | 452 kts | 237° |
| 2026-05-07 01:13 | 53.87404 | 53.08138 | 35891 ft | 452 kts | 237° |
| 2026-05-07 01:14 | 53.83991 | 52.99190 | 35900 ft | 452 kts | 237° |
| 2026-05-07 01:14 | 53.80539 | 52.90294 | 35903 ft | 452 kts | 236° |
| 2026-05-07 01:15 | 53.77003 | 52.81495 | 35893 ft | 452 kts | 236° |
| 2026-05-07 01:15 | 53.73447 | 52.72736 | 35907 ft | 452 kts | 236° |
| 2026-05-07 01:16 | 53.69903 | 52.63958 | 35893 ft | 452 kts | 236° |
| 2026-05-07 01:16 | 53.66360 | 52.55188 | 35907 ft | 452 kts | 236° |
| 2026-05-07 01:17 | 53.62805 | 52.46431 | 35905 ft | 453 kts | 236° |
| 2026-05-07 01:17 | 53.59238 | 52.37675 | 35911 ft | 453 kts | 236° |
| 2026-05-07 01:18 | 53.55666 | 52.28946 | 35908 ft | 453 kts | 235° |
| 2026-05-07 01:18 | 53.52088 | 52.20234 | 35905 ft | 453 kts | 235° |
| 2026-05-07 01:19 | 53.48506 | 52.11526 | 35900 ft | 453 kts | 235° |
| 2026-05-07 01:19 | 53.44918 | 52.02836 | 35897 ft | 453 kts | 235° |
| 2026-05-07 01:20 | 53.41318 | 51.94158 | 35900 ft | 453 kts | 235° |
| 2026-05-07 01:20 | 53.37710 | 51.85496 | 35897 ft | 453 kts | 235° |
| 2026-05-07 01:21 | 53.34100 | 51.76848 | 35895 ft | 453 kts | 235° |
| 2026-05-07 01:21 | 53.30481 | 51.68202 | 35899 ft | 454 kts | 235° |
| 2026-05-07 01:22 | 53.26852 | 51.59578 | 35897 ft | 454 kts | 235° |
| 2026-05-07 01:22 | 53.23223 | 51.50968 | 35887 ft | 454 kts | 235° |
| 2026-05-07 01:23 | 53.20194 | 51.43816 | 35888 ft | 454 kts | 234° |
| 2026-05-07 01:23 | 53.16546 | 51.35231 | 35884 ft | 454 kts | 234° |
| 2026-05-07 01:24 | 53.12902 | 51.26652 | 35886 ft | 454 kts | 234° |
| 2026-05-07 01:24 | 53.09246 | 51.18083 | 35893 ft | 454 kts | 234° |
| 2026-05-07 01:25 | 53.05579 | 51.09534 | 35892 ft | 454 kts | 234° |
| 2026-05-07 01:25 | 53.01907 | 51.00991 | 35888 ft | 454 kts | 234° |
| 2026-05-07 01:26 | 52.98223 | 50.92469 | 35885 ft | 454 kts | 234° |
| 2026-05-07 01:26 | 52.94533 | 50.83949 | 35882 ft | 455 kts | 234° |
| 2026-05-07 01:27 | 52.90843 | 50.75442 | 35882 ft | 455 kts | 234° |
| 2026-05-07 01:27 | 52.87143 | 50.66947 | 35876 ft | 455 kts | 234° |
| 2026-05-07 01:28 | 52.83435 | 50.58466 | 35880 ft | 455 kts | 234° |
| 2026-05-07 01:28 | 52.79716 | 50.49999 | 35877 ft | 455 kts | 234° |
| 2026-05-07 01:29 | 52.75989 | 50.41549 | 35878 ft | 455 kts | 234° |
| 2026-05-07 01:29 | 52.72250 | 50.33116 | 35882 ft | 455 kts | 234° |
| 2026-05-07 01:30 | 52.68505 | 50.24683 | 35887 ft | 455 kts | 234° |
| 2026-05-07 01:30 | 52.64760 | 50.16261 | 35876 ft | 456 kts | 233° |
| 2026-05-07 01:31 | 52.61010 | 50.07856 | 35888 ft | 456 kts | 233° |
| 2026-05-07 01:31 | 52.57317 | 49.99381 | 35888 ft | 456 kts | 239° |
| 2026-05-07 01:32 | 52.54773 | 49.89868 | 35889 ft | 456 kts | 249° |
| 2026-05-07 01:32 | 52.52530 | 49.80121 | 35884 ft | 456 kts | 249° |
| 2026-05-07 01:33 | 52.50273 | 49.70464 | 35892 ft | 456 kts | 249° |
| 2026-05-07 01:33 | 52.47995 | 49.60767 | 35901 ft | 456 kts | 249° |
| 2026-05-07 01:34 | 52.45716 | 49.51043 | 35902 ft | 456 kts | 249° |
| 2026-05-07 01:34 | 52.43432 | 49.41342 | 35910 ft | 457 kts | 249° |
| 2026-05-07 01:35 | 52.41140 | 49.31639 | 35915 ft | 456 kts | 249° |
| 2026-05-07 01:35 | 52.38841 | 49.21938 | 35911 ft | 457 kts | 249° |
| 2026-05-07 01:36 | 52.36533 | 49.12261 | 35910 ft | 457 kts | 249° |
| 2026-05-07 01:36 | 52.34210 | 49.02588 | 35908 ft | 457 kts | 248° |
| 2026-05-07 01:37 | 52.31876 | 48.92913 | 35901 ft | 458 kts | 248° |
| 2026-05-07 01:37 | 52.29532 | 48.83234 | 35913 ft | 458 kts | 248° |
| 2026-05-07 01:38 | 52.27173 | 48.73560 | 35912 ft | 459 kts | 248° |
| 2026-05-07 01:38 | 52.24810 | 48.63891 | 35909 ft | 459 kts | 248° |
| 2026-05-07 01:39 | 52.22436 | 48.54227 | 35909 ft | 459 kts | 248° |
| 2026-05-07 01:39 | 52.20051 | 48.44580 | 35911 ft | 459 kts | 248° |
| 2026-05-07 01:40 | 52.17658 | 48.34929 | 35907 ft | 459 kts | 248° |
| 2026-05-07 01:40 | 52.15265 | 48.25292 | 35904 ft | 459 kts | 248° |
| 2026-05-07 01:41 | 52.13138 | 48.15510 | 35888 ft | 459 kts | 255° |
| 2026-05-07 01:41 | 52.11427 | 48.05513 | 35885 ft | 459 kts | 254° |
| 2026-05-07 01:42 | 52.09696 | 47.95517 | 35890 ft | 459 kts | 254° |
| 2026-05-07 01:42 | 52.07955 | 47.85535 | 35892 ft | 459 kts | 254° |
| 2026-05-07 01:43 | 52.06210 | 47.75549 | 35887 ft | 459 kts | 254° |
| 2026-05-07 01:43 | 52.04457 | 47.65562 | 35892 ft | 459 kts | 254° |
| 2026-05-07 01:44 | 52.02683 | 47.55599 | 35886 ft | 460 kts | 254° |
| 2026-05-07 01:44 | 52.00902 | 47.45628 | 35889 ft | 460 kts | 254° |
| 2026-05-07 01:45 | 51.99143 | 47.35738 | 35892 ft | 460 kts | 254° |
| 2026-05-07 01:45 | 51.97354 | 47.25778 | 35880 ft | 460 kts | 254° |
| 2026-05-07 01:46 | 51.95549 | 47.15829 | 35887 ft | 460 kts | 254° |
| 2026-05-07 01:46 | 51.93733 | 47.05896 | 35885 ft | 460 kts | 253° |
| 2026-05-07 01:47 | 51.91914 | 46.95952 | 35894 ft | 460 kts | 254° |
| 2026-05-07 01:47 | 51.90098 | 46.86027 | 35896 ft | 460 kts | 253° |
| 2026-05-07 01:48 | 51.88268 | 46.76100 | 35896 ft | 460 kts | 253° |
| 2026-05-07 01:48 | 51.86421 | 46.66193 | 35899 ft | 460 kts | 253° |
| 2026-05-07 01:49 | 51.84562 | 46.56292 | 35899 ft | 460 kts | 253° |
| 2026-05-07 01:49 | 51.82660 | 46.46426 | 35907 ft | 460 kts | 249° |
| 2026-05-07 01:50 | 51.79461 | 46.37516 | 35901 ft | 460 kts | 230° |
| 2026-05-07 01:50 | 51.74817 | 46.30410 | 35907 ft | 461 kts | 221° |
| 2026-05-07 01:51 | 51.69998 | 46.23680 | 35907 ft | 461 kts | 221° |
| 2026-05-07 01:51 | 51.65119 | 46.16853 | 35916 ft | 461 kts | 221° |
| 2026-05-07 01:52 | 51.60294 | 46.10156 | 35909 ft | 461 kts | 221° |
| 2026-05-07 01:52 | 51.55201 | 46.03893 | 35912 ft | 462 kts | 209° |
| 2026-05-07 01:53 | 51.49433 | 45.99358 | 35893 ft | 462 kts | 205° |
| 2026-05-07 01:53 | 51.43625 | 45.94941 | 35902 ft | 462 kts | 205° |
| 2026-05-07 01:54 | 51.37817 | 45.90536 | 35898 ft | 462 kts | 205° |
| 2026-05-07 01:54 | 51.32010 | 45.86136 | 35908 ft | 462 kts | 205° |
| 2026-05-07 01:55 | 51.26200 | 45.81750 | 35913 ft | 462 kts | 205° |
| 2026-05-07 01:55 | 51.20387 | 45.77374 | 35909 ft | 462 kts | 205° |
| 2026-05-07 01:56 | 51.14566 | 45.72997 | 35891 ft | 463 kts | 205° |
| 2026-05-07 01:56 | 51.08740 | 45.68631 | 35899 ft | 463 kts | 205° |
| 2026-05-07 01:57 | 51.02986 | 45.64040 | 35898 ft | 463 kts | 213° |
| 2026-05-07 01:57 | 50.97864 | 45.57860 | 35898 ft | 462 kts | 218° |
| 2026-05-07 01:58 | 50.92810 | 45.51565 | 35909 ft | 463 kts | 218° |
| 2026-05-07 01:58 | 50.87735 | 45.45282 | 35917 ft | 462 kts | 218° |
| 2026-05-07 01:59 | 50.82623 | 45.39126 | 35922 ft | 462 kts | 216° |
| 2026-05-07 01:59 | 50.77430 | 45.33158 | 35920 ft | 462 kts | 216° |
| 2026-05-07 02:00 | 50.72262 | 45.27261 | 35926 ft | 462 kts | 216° |
| 2026-05-07 02:00 | 50.67067 | 45.21298 | 35924 ft | 462 kts | 216° |
| 2026-05-07 02:01 | 50.61880 | 45.15328 | 35913 ft | 462 kts | 216° |
| 2026-05-07 02:01 | 50.56688 | 45.09370 | 35915 ft | 462 kts | 216° |
| 2026-05-07 02:02 | 50.51494 | 45.03420 | 35920 ft | 462 kts | 216° |
| 2026-05-07 02:02 | 50.46296 | 44.97486 | 35918 ft | 462 kts | 216° |
| 2026-05-07 02:03 | 50.41079 | 44.91553 | 35933 ft | 463 kts | 216° |
| 2026-05-07 02:03 | 50.35857 | 44.85633 | 35944 ft | 463 kts | 216° |
| 2026-05-07 02:04 | 50.30640 | 44.79732 | 35942 ft | 463 kts | 216° |
| 2026-05-07 02:04 | 50.25417 | 44.73834 | 35932 ft | 463 kts | 216° |
| 2026-05-07 02:05 | 50.20190 | 44.67947 | 35947 ft | 463 kts | 216° |
| 2026-05-07 02:05 | 50.14958 | 44.62078 | 35942 ft | 463 kts | 216° |
| 2026-05-07 02:06 | 50.09727 | 44.56228 | 35942 ft | 463 kts | 216° |
| 2026-05-07 02:06 | 50.04498 | 44.50388 | 35951 ft | 463 kts | 216° |
| 2026-05-07 02:07 | 49.99265 | 44.44564 | 35960 ft | 463 kts | 216° |
| 2026-05-07 02:07 | 49.91407 | 44.35861 | 35958 ft | 462 kts | 215° |
| 2026-05-07 02:08 | 49.86169 | 44.30075 | 35956 ft | 462 kts | 215° |
| 2026-05-07 02:08 | 49.80933 | 44.24303 | 35958 ft | 462 kts | 215° |
| 2026-05-07 02:09 | 49.75699 | 44.18541 | 35949 ft | 462 kts | 215° |
| 2026-05-07 02:09 | 49.70455 | 44.12787 | 35962 ft | 462 kts | 215° |
| 2026-05-07 02:10 | 49.66089 | 44.08018 | 35962 ft | 462 kts | 215° |
| 2026-05-07 02:10 | 49.60836 | 44.02298 | 35961 ft | 462 kts | 215° |
| 2026-05-07 02:11 | 49.55577 | 43.96589 | 35958 ft | 463 kts | 215° |
| 2026-05-07 02:11 | 49.50301 | 43.90910 | 35948 ft | 463 kts | 213° |
| 2026-05-07 02:12 | 49.44855 | 43.85610 | 35952 ft | 463 kts | 211° |
| 2026-05-07 02:12 | 49.39320 | 43.80543 | 35958 ft | 463 kts | 210° |
| 2026-05-07 02:13 | 49.33798 | 43.75442 | 35964 ft | 463 kts | 211° |
| 2026-05-07 02:13 | 49.28309 | 43.70264 | 35968 ft | 463 kts | 211° |
| 2026-05-07 02:14 | 49.23069 | 43.64541 | 35962 ft | 464 kts | 218° |
| 2026-05-07 02:14 | 49.18050 | 43.58445 | 35969 ft | 464 kts | 218° |
| 2026-05-07 02:15 | 49.12985 | 43.52335 | 35976 ft | 464 kts | 218° |
| 2026-05-07 02:15 | 49.07907 | 43.46240 | 35991 ft | 464 kts | 218° |
| 2026-05-07 02:16 | 49.02826 | 43.40163 | 35980 ft | 464 kts | 218° |
| 2026-05-07 02:16 | 48.97752 | 43.34088 | 35980 ft | 464 kts | 218° |
| 2026-05-07 02:17 | 48.92677 | 43.28025 | 35973 ft | 464 kts | 218° |
| 2026-05-07 02:17 | 48.87596 | 43.21982 | 35980 ft | 464 kts | 218° |
| 2026-05-07 02:18 | 48.82509 | 43.15943 | 35976 ft | 464 kts | 217° |
| 2026-05-07 02:18 | 48.77415 | 43.09925 | 35974 ft | 464 kts | 217° |
| 2026-05-07 02:19 | 48.72322 | 43.03919 | 35982 ft | 464 kts | 217° |
| 2026-05-07 02:19 | 48.67235 | 42.97917 | 35990 ft | 464 kts | 217° |
| 2026-05-07 02:20 | 48.62160 | 42.91949 | 35990 ft | 464 kts | 217° |
| 2026-05-07 02:20 | 48.57053 | 42.85973 | 35998 ft | 464 kts | 217° |
| 2026-05-07 02:21 | 48.51944 | 42.80028 | 36001 ft | 463 kts | 217° |
| 2026-05-07 02:21 | 48.46828 | 42.74116 | 36004 ft | 463 kts | 217° |
| 2026-05-07 02:22 | 48.41705 | 42.68215 | 36008 ft | 464 kts | 217° |
| 2026-05-07 02:22 | 48.36582 | 42.62311 | 36014 ft | 464 kts | 217° |
| 2026-05-07 02:23 | 48.31455 | 42.56426 | 36023 ft | 464 kts | 217° |
| 2026-05-07 02:23 | 48.26331 | 42.50547 | 36025 ft | 464 kts | 217° |
| 2026-05-07 02:24 | 48.21192 | 42.44676 | 36031 ft | 464 kts | 217° |
| 2026-05-07 02:24 | 48.16078 | 42.38866 | 36037 ft | 465 kts | 216° |
| 2026-05-07 02:25 | 48.10922 | 42.33031 | 36032 ft | 465 kts | 216° |
| 2026-05-07 02:25 | 48.05756 | 42.27190 | 36035 ft | 466 kts | 216° |
| 2026-05-07 02:26 | 48.00548 | 42.21325 | 36042 ft | 466 kts | 216° |
| 2026-05-07 02:26 | 47.95377 | 42.15496 | 36040 ft | 466 kts | 216° |
| 2026-05-07 02:27 | 47.90232 | 42.09719 | 36037 ft | 466 kts | 216° |
| 2026-05-07 02:27 | 47.85039 | 42.03930 | 36049 ft | 466 kts | 216° |
| 2026-05-07 02:28 | 47.79841 | 41.98151 | 36039 ft | 467 kts | 216° |
| 2026-05-07 02:28 | 47.74605 | 41.92317 | 36046 ft | 467 kts | 216° |
| 2026-05-07 02:29 | 47.69443 | 41.86568 | 36048 ft | 467 kts | 216° |
| 2026-05-07 02:29 | 47.64237 | 41.80788 | 36054 ft | 468 kts | 216° |
| 2026-05-07 02:30 | 47.59019 | 41.75034 | 36052 ft | 468 kts | 216° |
| 2026-05-07 02:30 | 47.53795 | 41.69288 | 36048 ft | 468 kts | 215° |
| 2026-05-07 02:31 | 47.48567 | 41.63546 | 36052 ft | 468 kts | 215° |
| 2026-05-07 02:31 | 47.43340 | 41.57810 | 36060 ft | 468 kts | 215° |
| 2026-05-07 02:32 | 47.38117 | 41.52070 | 36068 ft | 468 kts | 215° |
| 2026-05-07 02:32 | 47.32890 | 41.46354 | 36062 ft | 468 kts | 215° |
| 2026-05-07 02:33 | 47.27649 | 41.40664 | 36065 ft | 468 kts | 215° |
| 2026-05-07 02:33 | 47.22412 | 41.34980 | 36062 ft | 468 kts | 215° |
| 2026-05-07 02:34 | 47.17178 | 41.29297 | 36062 ft | 468 kts | 215° |
| 2026-05-07 02:34 | 47.11932 | 41.23623 | 36065 ft | 468 kts | 215° |
| 2026-05-07 02:35 | 47.06683 | 41.17967 | 36067 ft | 469 kts | 215° |
| 2026-05-07 02:35 | 47.01425 | 41.12303 | 36074 ft | 469 kts | 215° |
| 2026-05-07 02:36 | 46.96155 | 41.06647 | 36079 ft | 470 kts | 215° |
| 2026-05-07 02:36 | 46.90871 | 41.00990 | 36092 ft | 471 kts | 215° |
| 2026-05-07 02:37 | 46.85573 | 40.95339 | 36090 ft | 472 kts | 215° |
| 2026-05-07 02:37 | 46.80266 | 40.89684 | 36093 ft | 473 kts | 215° |
| 2026-05-07 02:38 | 46.74964 | 40.83980 | 36088 ft | 474 kts | 216° |
| 2026-05-07 02:38 | 46.69735 | 40.78226 | 36099 ft | 474 kts | 216° |
| 2026-05-07 02:39 | 46.64484 | 40.72435 | 36100 ft | 473 kts | 216° |
| 2026-05-07 02:39 | 46.59215 | 40.66686 | 36101 ft | 473 kts | 213° |
| 2026-05-07 02:40 | 46.53572 | 40.61822 | 36095 ft | 472 kts | 208° |
| 2026-05-07 02:40 | 46.47872 | 40.57117 | 36102 ft | 471 kts | 208° |
| 2026-05-07 02:41 | 46.42176 | 40.52417 | 36107 ft | 470 kts | 208° |
| 2026-05-07 02:41 | 46.36477 | 40.47781 | 36107 ft | 469 kts | 205° |
| 2026-05-07 02:42 | 46.30339 | 40.44744 | 36101 ft | 466 kts | 193° |
| 2026-05-07 02:42 | 46.24059 | 40.42377 | 36105 ft | 466 kts | 193° |
| 2026-05-07 02:43 | 46.17782 | 40.39979 | 36108 ft | 467 kts | 193° |
| 2026-05-07 02:43 | 46.11499 | 40.37586 | 36116 ft | 467 kts | 193° |
| 2026-05-07 02:44 | 46.05213 | 40.35205 | 36114 ft | 467 kts | 193° |
| 2026-05-07 02:44 | 45.98926 | 40.32843 | 36123 ft | 467 kts | 193° |
| 2026-05-07 02:45 | 45.92677 | 40.30507 | 36126 ft | 467 kts | 193° |
| 2026-05-07 02:45 | 45.86387 | 40.28152 | 36128 ft | 467 kts | 193° |
| 2026-05-07 02:46 | 45.80103 | 40.25793 | 36126 ft | 467 kts | 193° |
| 2026-05-07 02:46 | 45.73964 | 40.22725 | 36127 ft | 470 kts | 205° |
| 2026-05-07 02:47 | 45.68094 | 40.18621 | 36136 ft | 470 kts | 205° |
| 2026-05-07 02:47 | 45.62211 | 40.14552 | 36136 ft | 470 kts | 204° |
| 2026-05-07 02:48 | 45.56329 | 40.10485 | 36139 ft | 470 kts | 205° |
| 2026-05-07 02:48 | 45.50448 | 40.06425 | 36144 ft | 469 kts | 205° |
| 2026-05-07 02:49 | 45.44526 | 40.02518 | 36146 ft | 468 kts | 198° |
| 2026-05-07 02:49 | 45.38193 | 40.00633 | 36137 ft | 466 kts | 185° |
| 2026-05-07 02:50 | 45.31759 | 39.99574 | 36150 ft | 465 kts | 185° |
| 2026-05-07 02:50 | 45.25317 | 39.98502 | 36154 ft | 466 kts | 185° |
| 2026-05-07 02:51 | 45.18876 | 39.97423 | 36161 ft | 466 kts | 185° |
| 2026-05-07 02:51 | 45.12443 | 39.96348 | 36169 ft | 466 kts | 185° |
| 2026-05-07 02:52 | 45.06005 | 39.95268 | 36169 ft | 466 kts | 185° |
| 2026-05-07 02:52 | 44.99562 | 39.94199 | 36174 ft | 466 kts | 185° |
| 2026-05-07 02:53 | 44.93121 | 39.93141 | 36175 ft | 466 kts | 185° |
| 2026-05-07 02:53 | 44.86695 | 39.92082 | 35940 ft | 461 kts | 185° |
| 2026-05-07 02:54 | 44.83510 | 39.91563 | 35702 ft | 461 kts | 185° |
| 2026-05-07 02:54 | 44.80324 | 39.91044 | 35459 ft | 461 kts | 185° |
| 2026-05-07 02:54 | 44.77134 | 39.90523 | 35220 ft | 462 kts | 185° |
| 2026-05-07 02:54 | 44.73944 | 39.90003 | 34984 ft | 462 kts | 185° |
| 2026-05-07 02:55 | 44.70746 | 39.89484 | 34750 ft | 463 kts | 185° |
| 2026-05-07 02:55 | 44.67550 | 39.88963 | 34515 ft | 463 kts | 185° |
| 2026-05-07 02:55 | 44.64348 | 39.88441 | 34293 ft | 464 kts | 185° |
| 2026-05-07 02:55 | 44.61138 | 39.87919 | 34049 ft | 464 kts | 185° |
| 2026-05-07 02:56 | 44.57926 | 39.87396 | 33766 ft | 465 kts | 185° |
| 2026-05-07 02:56 | 44.54713 | 39.86875 | 33497 ft | 465 kts | 185° |
| 2026-05-07 02:56 | 44.52587 | 39.86531 | 33318 ft | 465 kts | 185° |
| 2026-05-07 02:56 | 44.49370 | 39.86008 | 33048 ft | 465 kts | 185° |
| 2026-05-07 02:57 | 44.46153 | 39.85487 | 32787 ft | 466 kts | 185° |
| 2026-05-07 02:57 | 44.42930 | 39.84967 | 32524 ft | 466 kts | 185° |
| 2026-05-07 02:57 | 44.39712 | 39.84505 | 32271 ft | 465 kts | 180° |
| 2026-05-07 02:57 | 44.36482 | 39.84611 | 32012 ft | 463 kts | 171° |
| 2026-05-07 02:58 | 44.35115 | 39.84872 | 31901 ft | 462 kts | 167° |
| 2026-05-07 02:58 | 44.32001 | 39.85940 | 31648 ft | 460 kts | 161° |
| 2026-05-07 02:58 | 44.28920 | 39.87184 | 31398 ft | 461 kts | 161° |
| 2026-05-07 02:58 | 44.26838 | 39.88017 | 31230 ft | 461 kts | 161° |
| 2026-05-07 02:59 | 44.23758 | 39.89240 | 30978 ft | 461 kts | 162° |
| 2026-05-07 02:59 | 44.20667 | 39.90460 | 30737 ft | 461 kts | 162° |
| 2026-05-07 02:59 | 44.17580 | 39.91675 | 30491 ft | 461 kts | 162° |
| 2026-05-07 02:59 | 44.14492 | 39.92889 | 30254 ft | 461 kts | 162° |
| 2026-05-07 03:00 | 44.11402 | 39.94103 | 29959 ft | 462 kts | 162° |
| 2026-05-07 03:00 | 44.08306 | 39.95324 | 29673 ft | 462 kts | 162° |
| 2026-05-07 03:00 | 44.05252 | 39.96530 | 29393 ft | 463 kts | 162° |
| 2026-05-07 03:00 | 44.02151 | 39.97756 | 29105 ft | 464 kts | 162° |
| 2026-05-07 03:01 | 43.99052 | 39.98981 | 28102 ft | 464 kts | 162° |
| 2026-05-07 03:01 | 43.95927 | 40.00213 | 26795 ft | 469 kts | 162° |
| 2026-05-07 03:01 | 43.92779 | 40.01451 | 25522 ft | 472 kts | 162° |
| 2026-05-07 03:01 | 43.89613 | 40.02697 | 24308 ft | 474 kts | 163° |
| 2026-05-07 03:02 | 43.86438 | 40.03946 | 23025 ft | 476 kts | 163° |
| 2026-05-07 03:02 | 43.83261 | 40.05193 | 22104 ft | 470 kts | 163° |
| 2026-05-07 03:02 | 43.80142 | 40.06417 | 21239 ft | 464 kts | 163° |
| 2026-05-07 03:02 | 43.77049 | 40.07635 | 20375 ft | 459 kts | 163° |
| 2026-05-07 03:03 | 43.73985 | 40.08798 | 19530 ft | 456 kts | 167° |
| 2026-05-07 03:03 | 43.70851 | 40.09362 | 18699 ft | 453 kts | 178° |
| 2026-05-07 03:03 | 43.67722 | 40.09124 | 17879 ft | 449 kts | 189° |
| 2026-05-07 03:03 | 43.64725 | 40.08102 | 17569 ft | 443 kts | 199° |
| 2026-05-07 03:04 | 43.61884 | 40.06463 | 17306 ft | 441 kts | 205° |
| 2026-05-07 03:04 | 43.59096 | 40.04718 | 17040 ft | 439 kts | 205° |
| 2026-05-07 03:04 | 43.56320 | 40.02990 | 16534 ft | 436 kts | 204° |
| 2026-05-07 03:04 | 43.53565 | 40.01274 | 15738 ft | 433 kts | 204° |
| 2026-05-07 03:05 | 43.50832 | 39.99574 | 14977 ft | 430 kts | 204° |
| 2026-05-07 03:05 | 43.48115 | 39.97883 | 14215 ft | 427 kts | 204° |
| 2026-05-07 03:05 | 43.45424 | 39.96210 | 13424 ft | 421 kts | 204° |
| 2026-05-07 03:05 | 43.42802 | 39.94590 | 12586 ft | 409 kts | 204° |
| 2026-05-07 03:06 | 43.40220 | 39.93003 | 11786 ft | 404 kts | 204° |
| 2026-05-07 03:06 | 43.37666 | 39.91442 | 11024 ft | 394 kts | 204° |
| 2026-05-07 03:06 | 43.35274 | 39.89988 | 10328 ft | 359 kts | 204° |
| 2026-05-07 03:06 | 43.33088 | 39.88669 | 9668 ft | 330 kts | 204° |
| 2026-05-07 03:07 | 43.31061 | 39.87455 | 9042 ft | 306 kts | 204° |
| 2026-05-07 03:07 | 43.29175 | 39.86336 | 8470 ft | 286 kts | 204° |
| 2026-05-07 03:07 | 43.27346 | 39.85259 | 7956 ft | 286 kts | 204° |
| 2026-05-07 03:07 | 43.25526 | 39.84196 | 7456 ft | 283 kts | 203° |
| 2026-05-07 03:08 | 43.23719 | 39.83150 | 6981 ft | 281 kts | 203° |
| 2026-05-07 03:08 | 43.21924 | 39.82109 | 6520 ft | 279 kts | 204° |
| 2026-05-07 03:08 | 43.20146 | 39.81079 | 6044 ft | 276 kts | 203° |
| 2026-05-07 03:08 | 43.18389 | 39.80059 | 5588 ft | 273 kts | 203° |
| 2026-05-07 03:09 | 43.16649 | 39.79048 | 5150 ft | 271 kts | 203° |
| 2026-05-07 03:09 | 43.14922 | 39.78044 | 4738 ft | 270 kts | 203° |
| 2026-05-07 03:09 | 43.13207 | 39.77046 | 4426 ft | 266 kts | 203° |
| 2026-05-07 03:09 | 43.11508 | 39.76056 | 4128 ft | 264 kts | 202° |
| 2026-05-07 03:10 | 43.09728 | 39.75555 | 3998 ft | 264 kts | 176° |
| 2026-05-07 03:10 | 43.07908 | 39.75865 | 3869 ft | 263 kts | 166° |
| 2026-05-07 03:10 | 43.06112 | 39.76274 | 3730 ft | 262 kts | 184° |
| 2026-05-07 03:10 | 43.04440 | 39.75413 | 3614 ft | 261 kts | 220° |
| 2026-05-07 03:11 | 43.03454 | 39.73380 | 3487 ft | 261 kts | 253° |
| 2026-05-07 03:11 | 43.03217 | 39.70943 | 3358 ft | 260 kts | 275° |
| 2026-05-07 03:11 | 43.03724 | 39.68592 | 3225 ft | 260 kts | 300° |
| 2026-05-07 03:11 | 43.04928 | 39.66781 | 3098 ft | 259 kts | 326° |
| 2026-05-07 03:12 | 43.06588 | 39.65870 | 2968 ft | 258 kts | 352° |
| 2026-05-07 03:12 | 43.08379 | 39.65876 | 2840 ft | 258 kts | 4° |
| 2026-05-07 03:12 | 43.10169 | 39.66025 | 2714 ft | 257 kts | 4° |
| 2026-05-07 03:12 | 43.11953 | 39.66168 | 2584 ft | 256 kts | 3° |
| 2026-05-07 03:13 | 43.13730 | 39.66306 | 2455 ft | 256 kts | 3° |
| 2026-05-07 03:13 | 43.15503 | 39.66442 | 2328 ft | 255 kts | 3° |
| 2026-05-07 03:13 | 43.17273 | 39.66579 | 2198 ft | 255 kts | 3° |
| 2026-05-07 03:13 | 43.19039 | 39.66717 | 2077 ft | 254 kts | 3° |
| 2026-05-07 03:14 | 43.20801 | 39.66853 | 2002 ft | 254 kts | 3° |
| 2026-05-07 03:14 | 43.22565 | 39.66988 | 2010 ft | 254 kts | 3° |
| 2026-05-07 03:14 | 43.26089 | 39.67260 | 2009 ft | 254 kts | 3° |
| 2026-05-07 03:15 | 43.27854 | 39.67398 | 2011 ft | 254 kts | 3° |
| 2026-05-07 03:15 | 43.29618 | 39.67538 | 2014 ft | 254 kts | 3° |
| 2026-05-07 03:15 | 43.30391 | 39.67599 | 2006 ft | 254 kts | 3° |
| 2026-05-07 03:15 | 43.31638 | 39.67696 | 2009 ft | 254 kts | 3° |
| 2026-05-07 03:16 | 43.33394 | 39.67951 | 2009 ft | 254 kts | 14° |
| 2026-05-07 03:16 | 43.35007 | 39.68910 | 2009 ft | 254 kts | 34° |
| 2026-05-07 03:16 | 43.36282 | 39.70568 | 2011 ft | 254 kts | 54° |
| 2026-05-07 03:16 | 43.37090 | 39.72636 | 2009 ft | 236 kts | 65° |
| 2026-05-07 03:17 | 43.37764 | 39.74595 | 2005 ft | 218 kts | 64° |
| 2026-05-07 03:17 | 43.38404 | 39.76447 | 2010 ft | 214 kts | 64° |
| 2026-05-07 03:17 | 43.39017 | 39.78225 | 2011 ft | 198 kts | 64° |
| 2026-05-07 03:17 | 43.39593 | 39.79899 | 2011 ft | 193 kts | 64° |
| 2026-05-07 03:18 | 43.40155 | 39.81533 | 1823 ft | 187 kts | 64° |
| 2026-05-07 03:18 | 43.40710 | 39.83147 | 1498 ft | 186 kts | 64° |
| 2026-05-07 03:18 | 43.41252 | 39.84724 | 1242 ft | 177 kts | 64° |
| 2026-05-07 03:18 | 43.41757 | 39.86195 | 1023 ft | 163 kts | 64° |
| 2026-05-07 03:19 | 43.42084 | 39.87146 | 892 ft | 153 kts | 64° |
| 2026-05-07 03:19 | 43.42518 | 39.88412 | 755 ft | 141 kts | 64° |
| 2026-05-07 03:19 | 43.42938 | 39.89637 | 679 ft | 141 kts | 64° |
| 2026-05-07 03:19 | 43.43353 | 39.90863 | 484 ft | 141 kts | 64° |
| 2026-05-07 03:20 | 43.43767 | 39.92074 | 173 ft | 139 kts | 64° |
| 2026-05-07 03:20 | 43.44175 | 39.93280 | 57 ft | 137 kts | 60° |
| 2026-05-07 03:20 | 43.44481 | 39.94130 | 65 ft | 51 kts | 63° |
| 2026-05-07 03:20 | 43.44568 | 39.94387 | 69 ft | 22 kts | 66° |
| 2026-05-07 03:21 | 43.44634 | 39.94585 | 70 ft | 22 kts | 63° |
| 2026-05-07 03:21 | 43.44690 | 39.94741 | 74 ft | 15 kts | 63° |
| 2026-05-07 03:21 | 43.44778 | 39.94762 | 66 ft | 14 kts | 334° |
| 2026-05-07 03:21 | 43.44780 | 39.94661 | 73 ft | 11 kts | 245° |
| 2026-05-07 03:22 | 43.44750 | 39.94571 | 69 ft | 10 kts | 245° |
| 2026-05-07 03:22 | 43.44723 | 39.94491 | 73 ft | 9 kts | 245° |
| 2026-05-07 03:22 | 43.44731 | 39.94430 | 72 ft | 6 kts | 319° |
| 2026-05-07 03:22 | 43.44766 | 39.94405 | 71 ft | 5 kts | 335° |
| 2026-05-07 03:23 | 43.44794 | 39.94386 | 71 ft | 4 kts | 333° |
| 2026-05-07 03:23 | 43.44816 | 39.94371 | 70 ft | 3 kts | 335° |
| 2026-05-07 03:23 | 43.44818 | 39.94370 | 69 ft | 0 kts | 335° |